createdAt,value
2018-06-28T00:02:29.866Z,98722.46
2018-06-28T00:05:00.628Z,98720.37
2018-06-28T00:07:31.280Z,98716.74
2018-06-28T00:10:02.148Z,98717.82
2018-06-28T00:12:32.952Z,98716.57
2018-06-28T00:15:03.830Z,98718.66
2018-06-28T00:17:33.920Z,98708.40
2018-06-28T00:20:04.538Z,98709.39
2018-06-28T00:22:35.085Z,98706.48
2018-06-28T00:25:05.997Z,98707.59
2018-06-28T00:27:36.565Z,98697.61
2018-06-28T00:30:07.462Z,98702.28
2018-06-28T00:32:38.025Z,98700.19
2018-06-28T00:35:09.053Z,98698.14
2018-06-28T00:37:39.471Z,98699.15
2018-06-28T00:40:10.317Z,98699.80
2018-06-28T00:42:41.039Z,98704.38
2018-06-28T00:45:12.098Z,98698.34
2018-06-28T00:47:42.774Z,98699.87
2018-06-28T00:50:13.787Z,98690.97
2018-06-28T00:52:44.546Z,98688.78
2018-06-28T00:55:15.566Z,98687.86
2018-06-28T00:57:45.686Z,98681.23
2018-06-28T01:00:16.534Z,98677.13
2018-06-28T01:02:47.216Z,98678.50
2018-06-28T01:05:17.739Z,98678.10
2018-06-28T01:07:48.373Z,98681.87
2018-06-28T01:10:19.082Z,98681.12
2018-06-28T01:12:49.833Z,98683.82
2018-06-28T01:15:20.505Z,98688.85
2018-06-28T01:17:51.265Z,98677.52
2018-06-28T01:20:21.813Z,98682.31
2018-06-28T01:22:52.577Z,98677.80
2018-06-28T01:25:23.408Z,98680.33
2018-06-28T01:27:54.165Z,98679.30
2018-06-28T01:30:25.036Z,98665.95
2018-06-28T01:32:55.713Z,98664.88
2018-06-28T01:35:26.525Z,98666.56
2018-06-28T01:37:57.289Z,98673.25
2018-06-28T01:40:28.157Z,98672.05
2018-06-28T01:43:29.089Z,98670.16
2018-06-28T01:46:00.056Z,98666.25
2018-06-28T01:48:30.835Z,98664.95
2018-06-28T01:51:01.818Z,98670.70
2018-06-28T01:53:32.554Z,98670.70
2018-06-28T01:56:04.558Z,98668.91
2018-06-28T01:58:35.311Z,98670.66
2018-06-28T02:01:06.079Z,98666.00
2018-06-28T02:03:36.762Z,98665.55
2018-06-28T02:06:07.457Z,98672.66
2018-06-28T02:08:37.689Z,98674.91
2018-06-28T02:11:08.725Z,98676.45
2018-06-28T02:13:39.405Z,98674.73
2018-06-28T02:16:10.172Z,98668.59
2018-06-28T02:18:40.866Z,98665.19
2018-06-28T02:21:11.705Z,98662.64
2018-06-28T02:23:42.332Z,98655.12
2018-06-28T02:26:13.206Z,98647.09
2018-06-28T02:28:43.930Z,98648.14
2018-06-28T02:31:14.796Z,98647.45
2018-06-28T02:33:46.289Z,98646.59
2018-06-28T02:36:20.022Z,98653.98
2018-06-28T02:38:51.302Z,98644.68
2018-06-28T02:41:23.422Z,98644.16
2018-06-28T02:43:54.676Z,98641.34
2018-06-28T02:46:25.531Z,98647.61
2018-06-28T02:48:56.221Z,98648.86
2018-06-28T02:51:27.057Z,98644.70
2018-06-28T02:53:57.683Z,98642.67
2018-06-28T02:56:28.573Z,98645.26
2018-06-28T02:59:00.350Z,98642.21
2018-06-28T03:01:30.926Z,98638.70
2018-06-28T03:04:01.101Z,98636.52
2018-06-28T03:06:31.705Z,98641.41
2018-06-28T03:09:02.365Z,98643.34
2018-06-28T03:11:35.144Z,98638.38
2018-06-28T03:14:05.726Z,98632.08
2018-06-28T03:16:36.605Z,98633.05
2018-06-28T03:19:07.181Z,98631.89
2018-06-28T03:21:38.130Z,98624.85
2018-06-28T03:24:08.850Z,98622.19
2018-06-28T03:26:39.606Z,98625.06
2018-06-28T03:29:10.230Z,98621.20
2018-06-28T03:31:40.970Z,98617.84
2018-06-28T03:34:11.647Z,98624.80
2018-06-28T03:36:42.646Z,98627.64
2018-06-28T03:39:14.389Z,98625.84
2018-06-28T03:41:45.425Z,98621.04
2018-06-28T03:44:15.721Z,98614.45
2018-06-28T03:46:46.670Z,98607.34
2018-06-28T03:49:16.785Z,98612.18
2018-06-28T03:51:47.221Z,98611.50
2018-06-28T03:54:17.893Z,98611.27
2018-06-28T03:56:48.465Z,98601.20
2018-06-28T03:59:19.230Z,98612.84
2018-06-28T04:01:49.237Z,98614.52
2018-06-28T04:04:20.225Z,98607.72
2018-06-28T04:06:50.871Z,98603.06
2018-06-28T04:09:21.838Z,98609.48
2018-06-28T04:11:52.556Z,98606.15
2018-06-28T04:14:23.469Z,98608.98
2018-06-28T04:16:55.027Z,98608.65
2018-06-28T04:19:25.665Z,98604.33
2018-06-28T04:21:56.217Z,98596.98
2018-06-28T04:24:26.946Z,98597.09
2018-06-28T04:26:57.561Z,98592.02
2018-06-28T04:29:28.236Z,98603.41
2018-06-28T04:31:58.333Z,98606.28
2018-06-28T04:34:29.697Z,98607.04
2018-06-28T04:37:00.450Z,98610.17
2018-06-28T04:39:31.218Z,98607.39
2018-06-28T04:42:01.914Z,98604.89
2018-06-28T04:44:32.637Z,98597.53
2018-06-28T04:47:02.628Z,98599.05
2018-06-28T04:49:33.550Z,98604.52
2018-06-28T04:52:04.192Z,98602.98
2018-06-28T04:54:35.003Z,98604.48
2018-06-28T04:57:05.854Z,98594.55
2018-06-28T04:59:36.625Z,98592.70
2018-06-28T05:02:06.725Z,98598.48
2018-06-28T05:04:37.570Z,98601.89
2018-06-28T05:07:08.440Z,98594.23
2018-06-28T05:09:39.157Z,98589.16
2018-06-28T05:12:09.361Z,98589.67
2018-06-28T05:14:40.214Z,98588.82
2018-06-28T05:17:10.764Z,98589.67
2018-06-28T05:19:41.501Z,98591.41
2018-06-28T05:22:11.993Z,98583.00
2018-06-28T05:24:42.954Z,98581.06
2018-06-28T05:27:13.574Z,98587.96
2018-06-28T05:29:44.310Z,98585.99
2018-06-28T05:32:15.054Z,98594.06
2018-06-28T05:34:45.848Z,98596.36
2018-06-28T05:37:16.435Z,98594.92
2018-06-28T05:39:47.337Z,98592.02
2018-06-28T05:42:18.149Z,98591.27
2018-06-28T05:44:49.006Z,98588.61
2018-06-28T05:47:20.026Z,98587.76
2018-06-28T05:49:50.738Z,98590.25
2018-06-28T05:52:21.538Z,98591.97
2018-06-28T05:54:52.493Z,98591.87
2018-06-28T05:57:23.338Z,98594.96
2018-06-28T05:59:54.149Z,98590.56
2018-06-28T06:02:24.946Z,98592.55
2018-06-28T06:04:55.742Z,98599.63
2018-06-28T06:07:26.428Z,98594.07
2018-06-28T06:09:57.510Z,98598.05
2018-06-28T06:12:28.377Z,98598.47
2018-06-28T06:14:59.893Z,98597.22
2018-06-28T06:17:30.620Z,98603.80
2018-06-28T06:20:01.530Z,98605.09
2018-06-28T06:22:31.665Z,98610.62
2018-06-28T06:25:02.717Z,98608.50
2018-06-28T06:27:32.973Z,98615.15
2018-06-28T06:30:03.871Z,98619.61
2018-06-28T06:32:34.118Z,98622.59
2018-06-28T06:35:05.090Z,98613.17
2018-06-28T06:37:35.870Z,98612.70
2018-06-28T06:40:06.947Z,98616.98
2018-06-28T06:42:37.673Z,98621.78
2018-06-28T06:45:08.951Z,98620.92
2018-06-28T06:47:39.024Z,98620.64
2018-06-28T06:50:09.838Z,98627.52
2018-06-28T06:52:40.462Z,98623.19
2018-06-28T06:55:11.166Z,98626.96
2018-06-28T06:57:41.876Z,98626.42
2018-06-28T07:00:12.711Z,98629.30
2018-06-28T07:02:43.370Z,98631.59
2018-06-28T07:05:13.897Z,98638.77
2018-06-28T07:07:44.146Z,98644.71
2018-06-28T07:10:15.054Z,98643.16
2018-06-28T07:12:45.654Z,98645.43
2018-06-28T07:15:16.413Z,98645.48
2018-06-28T07:17:47.201Z,98655.39
2018-06-28T07:20:17.893Z,98650.19
2018-06-28T07:22:48.728Z,98652.21
2018-06-28T07:25:19.622Z,98651.09
2018-06-28T07:27:50.211Z,98659.28
2018-06-28T07:30:21.394Z,98661.69
2018-06-28T07:32:51.933Z,98661.17
2018-06-28T07:35:22.606Z,98663.53
2018-06-28T07:37:52.846Z,98664.58
2018-06-28T07:40:23.698Z,98663.80
2018-06-28T07:42:54.049Z,98667.13
2018-06-28T07:45:24.714Z,98674.91
2018-06-28T07:47:54.809Z,98671.07
2018-06-28T07:50:25.649Z,98676.69
2018-06-28T07:52:56.263Z,98679.75
2018-06-28T07:55:27.063Z,98675.02
2018-06-28T07:57:58.206Z,98677.81
2018-06-28T08:00:28.914Z,98675.39
2018-06-28T08:02:59.121Z,98682.61
2018-06-28T08:05:30.195Z,98683.94
2018-06-28T08:08:00.862Z,98686.09
2018-06-28T08:10:31.746Z,98687.91
2018-06-28T08:13:02.436Z,98691.66
2018-06-28T08:15:33.257Z,98697.37
2018-06-28T08:18:04.707Z,98699.98
2018-06-28T08:20:35.611Z,98703.14
2018-06-28T08:23:09.014Z,98698.95
2018-06-28T08:25:39.930Z,98699.98
2018-06-28T08:28:10.741Z,98706.23
2018-06-28T08:30:41.605Z,98702.56
2018-06-28T08:33:12.377Z,98711.41
2018-06-28T08:35:43.196Z,98716.66
2018-06-28T08:38:13.946Z,98715.30
2018-06-28T08:40:44.655Z,98709.98
2018-06-28T08:43:15.511Z,98706.50
2018-06-28T08:45:46.371Z,98709.28
2018-06-28T08:48:17.074Z,98704.78
2018-06-28T08:50:47.794Z,98701.22
2018-06-28T08:53:18.441Z,98700.64
2018-06-28T08:55:49.114Z,98697.63
2018-06-28T08:58:19.815Z,98697.64
2018-06-28T09:00:50.722Z,98691.14
2018-06-28T09:03:21.366Z,98680.72
2018-06-28T09:05:52.147Z,98683.41
2018-06-28T09:08:22.884Z,98669.88
2018-06-28T09:10:53.613Z,98672.97
2018-06-28T09:13:23.713Z,98688.58
2018-06-28T09:15:54.910Z,98686.81
2018-06-28T09:18:25.630Z,98693.38
2018-06-28T09:20:56.503Z,98696.77
2018-06-28T09:23:27.129Z,98693.09
2018-06-28T09:25:57.867Z,98695.67
2018-06-28T09:28:28.555Z,98690.67
2018-06-28T09:30:59.444Z,98690.55
2018-06-28T09:33:29.969Z,98679.20
2018-06-28T09:36:00.897Z,98671.28
2018-06-28T09:38:31.544Z,98680.28
2018-06-28T09:41:02.366Z,98686.69
2018-06-28T09:43:33.007Z,98688.48
2018-06-28T09:46:03.797Z,98692.69
2018-06-28T09:48:34.479Z,98687.96
2018-06-28T09:51:05.142Z,98663.54
2018-06-28T09:53:35.413Z,98646.55
2018-06-28T09:56:06.321Z,98693.95
2018-06-28T09:58:37.006Z,98704.06
2018-06-28T10:01:07.685Z,98700.06
2018-06-28T10:03:37.764Z,98690.73
2018-06-28T10:06:08.739Z,98673.48
2018-06-28T10:08:39.525Z,98670.61
2018-06-28T10:11:10.360Z,98670.53
2018-06-28T10:13:41.194Z,98668.91
2018-06-28T10:16:11.778Z,98667.34
2018-06-28T10:18:42.517Z,98676.63
2018-06-28T10:21:13.357Z,98696.60
2018-06-28T10:23:44.129Z,98684.63
2018-06-28T10:26:14.645Z,98694.97
2018-06-28T10:28:45.222Z,98698.95
2018-06-28T10:31:16.114Z,98689.80
2018-06-28T10:33:46.807Z,98671.48
2018-06-28T10:36:17.546Z,98653.27
2018-06-28T10:38:48.227Z,98642.79
2018-06-28T10:41:18.910Z,98665.86
2018-06-28T10:43:49.044Z,98663.98
2018-06-28T10:46:19.789Z,98669.51
2018-06-28T10:48:50.473Z,98668.34
2018-06-28T10:51:21.222Z,98652.14
2018-06-28T10:53:51.371Z,98629.91
2018-06-28T10:56:22.208Z,98646.36
2018-06-28T10:58:52.993Z,98654.84
2018-06-28T11:01:24.248Z,98637.63
2018-06-28T11:03:54.403Z,98637.75
2018-06-28T11:06:25.471Z,98648.12
2018-06-28T11:08:56.174Z,98642.99
2018-06-28T11:11:26.922Z,98641.55
2018-06-28T11:13:57.630Z,98644.37
2018-06-28T11:16:28.376Z,98630.63
2018-06-28T11:18:59.078Z,98634.81
2018-06-28T11:21:30.038Z,98643.30
2018-06-28T11:24:00.731Z,98639.96
2018-06-28T11:26:31.727Z,98633.30
2018-06-28T11:29:02.419Z,98637.27
2018-06-28T11:31:33.319Z,98623.82
2018-06-28T11:34:04.099Z,98618.29
2018-06-28T11:36:34.970Z,98617.94
2018-06-28T11:39:08.763Z,98616.30
2018-06-28T11:41:40.021Z,98612.84
2018-06-28T11:44:11.163Z,98618.59
2018-06-28T11:46:42.171Z,98616.00
2018-06-28T11:49:12.970Z,98617.78
2018-06-28T11:51:43.894Z,98619.58
2018-06-28T11:54:14.667Z,98616.83
2018-06-28T11:56:45.554Z,98618.12
2018-06-28T11:59:16.246Z,98626.84
2018-06-28T12:01:47.069Z,98636.96
2018-06-28T12:04:17.806Z,98647.36
2018-06-28T12:06:48.765Z,98651.47
2018-06-28T12:09:19.574Z,98658.45
2018-06-28T12:11:50.420Z,98655.14
2018-06-28T12:14:21.097Z,98664.41
2018-06-28T12:16:51.984Z,98670.81
2018-06-28T12:19:22.598Z,98681.87
2018-06-28T12:21:53.468Z,98685.18
2018-06-28T12:24:24.183Z,98683.59
2018-06-28T12:26:54.846Z,98693.84
2018-06-28T12:29:25.492Z,98700.25
2018-06-28T12:31:56.486Z,98704.63
2018-06-28T12:34:27.174Z,98716.44
2018-06-28T12:36:58.154Z,98716.67
2018-06-28T12:39:28.357Z,98714.55
2018-06-28T12:41:59.314Z,98713.52
2018-06-28T12:44:29.422Z,98730.30
2018-06-28T12:49:07.878Z,98727.14
2018-06-28T12:51:54.638Z,98719.83
2018-06-28T12:54:25.934Z,98712.25
2018-06-28T12:56:56.713Z,98707.81
2018-06-28T12:59:27.338Z,98701.27
2018-06-28T13:01:57.909Z,98686.69
2018-06-28T13:04:28.693Z,98671.33
2018-06-28T13:07:00.562Z,98674.22
2018-06-28T13:09:32.235Z,98667.42
2018-06-28T13:12:02.931Z,98672.34
2018-06-28T13:14:33.605Z,98688.42
2018-06-28T13:17:04.282Z,98698.16
2018-06-28T13:19:34.921Z,98720.09
2018-06-28T13:22:05.590Z,98719.88
2018-06-28T13:24:36.332Z,98714.41
2018-06-28T13:27:07.164Z,98700.56
2018-06-28T13:29:38.389Z,98689.56
2018-06-28T13:32:08.978Z,98682.03
2018-06-28T13:34:39.297Z,98685.19
2018-06-28T13:37:09.385Z,98664.11
2018-06-28T13:39:40.393Z,98649.66
2018-06-28T13:42:11.614Z,98630.87
2018-06-28T13:44:42.377Z,98623.86
2018-06-28T13:47:13.028Z,98614.27
2018-06-28T13:49:43.871Z,98618.47
2018-06-28T13:52:14.542Z,98631.95
2018-06-28T13:54:45.425Z,98652.23
2018-06-28T13:57:16.086Z,98669.37
2018-06-28T13:59:47.169Z,98673.73
2018-06-28T14:02:17.730Z,98674.88
2018-06-28T14:04:48.634Z,98681.69
2018-06-28T14:07:19.298Z,98675.81
2018-06-28T14:09:50.025Z,98688.98
2018-06-28T14:12:20.718Z,98688.09
2018-06-28T14:14:51.590Z,98685.98
2018-06-28T14:17:22.258Z,98674.61
2018-06-28T14:32:32.321Z,98654.88
2018-06-28T14:35:03.129Z,98656.66
2018-06-28T14:37:33.794Z,98662.89
2018-06-28T14:40:04.982Z,98660.30
2018-06-28T14:42:35.689Z,98652.98
2018-06-28T14:45:06.693Z,98645.45
2018-06-28T14:47:37.522Z,98652.98
2018-06-28T14:50:07.956Z,98648.18
2018-06-28T14:52:38.718Z,98651.84
2018-06-28T14:55:10.242Z,98656.52
2018-06-28T14:57:41.225Z,98659.87
2018-06-28T15:00:11.900Z,98655.61
2018-06-28T15:02:42.609Z,98664.41
2018-06-28T15:05:13.277Z,98661.11
2018-06-28T15:07:44.099Z,98659.47
2018-06-28T15:10:14.670Z,98661.44
2018-06-28T15:12:45.406Z,98662.66
2018-06-28T15:15:16.167Z,98653.22
2018-06-28T15:17:46.689Z,98654.39
2018-06-28T15:20:17.247Z,98651.84
2018-06-28T15:22:47.827Z,98644.47
2018-06-28T15:25:18.433Z,98645.02
2018-06-28T15:27:49.271Z,98648.84
2018-06-28T15:30:19.878Z,98645.42
2018-06-28T15:32:50.645Z,98649.34
2018-06-28T15:35:21.213Z,98649.06
2018-06-28T15:37:51.898Z,98650.75
2018-06-28T15:40:22.429Z,98649.81
2018-06-28T15:42:53.549Z,98647.23
2018-06-28T15:45:24.181Z,98646.81
2018-06-28T15:47:54.930Z,98638.01
2018-06-28T15:50:25.635Z,98636.55
2018-06-28T15:52:56.425Z,98625.56
2018-06-28T15:55:27.159Z,98625.45
2018-06-28T15:57:58.090Z,98628.62
2018-06-28T16:00:28.613Z,98619.68
2018-06-28T16:02:59.400Z,98618.64
2018-06-28T16:05:30.094Z,98621.84
2018-06-28T16:08:00.865Z,98626.65
2018-06-28T16:10:31.423Z,98629.95
2018-06-28T16:13:02.149Z,98637.55
2018-06-28T16:15:32.551Z,98642.03
2018-06-28T16:18:03.234Z,98650.56
2018-06-28T16:20:33.889Z,98653.38
2018-06-28T16:23:04.709Z,98661.34
2018-06-28T16:25:35.506Z,98657.24
2018-06-28T16:28:06.551Z,98655.12
2018-06-28T16:30:37.184Z,98659.45
2018-06-28T16:33:08.099Z,98669.26
2018-06-28T16:35:38.802Z,98668.07
2018-06-28T16:38:09.842Z,98674.05
2018-06-28T16:40:40.444Z,98675.73
2018-06-28T16:43:11.157Z,98673.36
2018-06-28T16:45:41.633Z,98671.91
2018-06-28T16:48:12.537Z,98674.69
2018-06-28T16:50:43.008Z,98676.63
2018-06-28T16:53:14.178Z,98678.12
2018-06-28T16:55:44.930Z,98677.81
2018-06-28T16:58:15.816Z,98683.59
2018-06-28T17:00:46.631Z,98682.09
2018-06-28T17:03:18.145Z,98686.86
2018-06-28T17:05:48.733Z,98689.73
2018-06-28T17:08:19.561Z,98685.66
2018-06-28T17:10:49.657Z,98688.05
2018-06-28T17:13:20.609Z,98687.52
2018-06-28T17:15:51.361Z,98688.62
2018-06-28T17:18:22.144Z,98687.80
2018-06-28T17:20:52.785Z,98685.27
2018-06-28T17:23:24.066Z,98698.13
2018-06-28T17:25:54.156Z,98696.17
2018-06-28T17:28:24.953Z,98701.00
2018-06-28T17:30:55.608Z,98696.82
2018-06-28T17:33:26.482Z,98694.20
2018-06-28T17:35:56.491Z,98683.92
2018-06-28T17:38:27.199Z,98686.83
2018-06-28T17:40:57.770Z,98682.45
2018-06-28T17:43:28.698Z,98685.50
2018-06-28T17:45:59.382Z,98676.28
2018-06-28T17:48:30.123Z,98676.55
2018-06-28T17:51:00.458Z,98674.52
2018-06-28T17:53:31.150Z,98682.52
2018-06-28T17:56:01.916Z,98676.09
2018-06-28T17:58:32.850Z,98675.31
2018-06-28T18:01:03.494Z,98678.16
2018-06-28T18:03:34.525Z,98678.85
2018-06-28T18:06:05.185Z,98673.85
2018-06-28T18:08:35.868Z,98675.94
2018-06-28T18:11:06.536Z,98669.16
2018-06-28T18:13:37.316Z,98667.92
2018-06-28T18:16:08.053Z,98665.64
2018-06-28T18:18:38.907Z,98664.06
2018-06-28T18:21:09.671Z,98663.30
2018-06-28T18:23:40.486Z,98664.82
2018-06-28T18:26:11.145Z,98670.27
2018-06-28T18:28:42.189Z,98668.52
2018-06-28T18:31:15.713Z,98671.10
2018-06-28T18:33:47.206Z,98681.92
2018-06-28T18:36:17.883Z,98675.92
2018-06-28T18:38:48.635Z,98682.69
2018-06-28T18:41:19.250Z,98682.33
2018-06-28T18:43:50.090Z,98690.33
2018-06-28T18:46:20.853Z,98692.30
2018-06-28T18:48:51.593Z,98694.38
2018-06-28T18:51:22.484Z,98705.80
2018-06-28T18:53:53.165Z,98706.60
2018-06-28T18:56:23.753Z,98714.88
2018-06-28T18:58:55.438Z,98720.09
2018-06-28T19:01:26.007Z,98719.08
2018-06-28T19:03:56.847Z,98720.05
2018-06-28T19:06:27.622Z,98722.86
2018-06-28T19:08:58.354Z,98724.42
2018-06-28T19:11:29.146Z,98723.36
2018-06-28T19:14:04.880Z,98725.05
2018-06-28T19:16:40.630Z,98718.71
2018-06-28T19:19:11.893Z,98728.31
2018-06-28T19:21:47.340Z,98728.79
2018-06-28T19:24:17.862Z,98735.91
2018-06-28T19:26:49.145Z,98745.83
2018-06-28T19:29:24.777Z,98744.76
2018-06-28T19:32:00.545Z,98747.87
2018-06-28T19:34:31.450Z,98744.47
2018-06-28T19:37:02.030Z,98748.92
2018-06-28T19:39:37.873Z,98745.33
2018-06-28T19:42:13.385Z,98746.64
2018-06-28T19:44:44.774Z,98741.41
2018-06-28T19:47:15.515Z,98730.98
2018-06-28T19:49:51.358Z,98727.08
2018-06-28T19:52:26.858Z,98722.91
2018-06-28T19:54:57.706Z,98719.51
2018-06-28T19:57:29.274Z,98726.03
2018-06-28T20:00:00.150Z,98724.46
2018-06-28T20:02:35.935Z,98727.61
2018-06-28T20:05:07.062Z,98731.80
2018-06-28T20:07:37.857Z,98733.35
2018-06-28T20:10:08.850Z,98734.70
2018-06-28T20:12:44.583Z,98732.34
2018-06-28T20:15:20.516Z,98737.30
2018-06-28T20:18:02.938Z,98742.23
2018-06-28T20:20:35.538Z,98740.14
2018-06-28T20:23:06.186Z,98749.53
2018-06-28T20:25:37.082Z,98746.69
2018-06-28T20:29:14.285Z,98748.22
2018-06-28T20:31:49.645Z,98739.63
2018-06-28T20:34:20.305Z,98742.22
2018-06-28T20:36:50.994Z,98737.58
2018-06-28T20:39:21.669Z,98744.33
2018-06-28T20:41:52.329Z,98742.27
2018-06-28T20:44:22.421Z,98738.09
2018-06-28T20:46:53.173Z,98739.66
2018-06-28T20:49:23.910Z,98746.69
2018-06-28T20:51:54.245Z,98747.47
2018-06-28T20:54:25.075Z,98748.23
2018-06-28T20:56:55.842Z,98750.83
2018-06-28T20:59:26.318Z,98748.77
2018-06-28T21:01:58.043Z,98757.09
2018-06-28T21:04:28.830Z,98757.84
2018-06-28T21:06:59.926Z,98755.78
2018-06-28T21:09:30.656Z,98754.48
2018-06-28T21:12:01.507Z,98760.47
2018-06-28T21:14:32.333Z,98761.47
2018-06-28T21:17:03.233Z,98767.95
2018-06-28T21:19:33.943Z,98764.31
2018-06-28T21:22:05.757Z,98761.72
2018-06-28T21:24:36.410Z,98760.17
2018-06-28T21:27:07.161Z,98760.93
2018-06-28T21:29:37.866Z,98763.55
2018-06-28T21:32:08.806Z,98767.43
2018-06-28T21:34:39.982Z,98760.39
2018-06-28T21:37:09.945Z,98765.05
2018-06-28T21:39:40.485Z,98760.89
2018-06-28T21:42:11.141Z,98760.60
2018-06-28T21:44:41.781Z,98763.97
2018-06-28T21:47:12.694Z,98759.05
2018-06-28T21:49:43.290Z,98765.02
2018-06-28T21:52:13.825Z,98757.48
2018-06-28T21:54:44.529Z,98756.47
2018-06-28T21:57:15.642Z,98748.42
2018-06-28T21:59:46.289Z,98744.27
2018-06-28T22:02:16.937Z,98746.11
2018-06-28T22:04:47.797Z,98746.34
2018-06-28T22:07:18.526Z,98741.94
2018-06-28T22:09:49.206Z,98747.94
2018-06-28T22:12:19.949Z,98745.86
2018-06-28T22:14:51.022Z,98749.48
2018-06-28T22:17:21.697Z,98750.54
2018-06-28T22:19:52.212Z,98749.23
2018-06-28T22:22:22.934Z,98747.08
2018-06-28T22:24:53.790Z,98749.29
2018-06-28T22:27:26.206Z,98745.13
2018-06-28T22:29:57.045Z,98744.45
2018-06-28T22:32:27.833Z,98748.17
2018-06-28T22:34:58.934Z,98740.59
2018-06-28T22:37:29.716Z,98746.34
2018-06-28T22:40:00.437Z,98742.74
2018-06-28T22:42:31.077Z,98747.64
2018-06-28T22:45:01.806Z,98743.73
2018-06-28T22:47:32.449Z,98754.14
2018-06-28T22:50:04.538Z,98757.56
2018-06-28T22:52:35.583Z,98753.14
2018-06-28T22:55:06.217Z,98752.88
2018-06-28T22:57:36.943Z,98753.41
2018-06-28T23:00:08.995Z,98752.16
2018-06-28T23:02:40.021Z,98752.91
2018-06-28T23:05:10.821Z,98752.40
2018-06-28T23:07:41.491Z,98749.77
2018-06-28T23:10:12.527Z,98755.27
2018-06-28T23:12:43.085Z,98751.10
2018-06-28T23:15:14.003Z,98745.38
2018-06-28T23:17:44.737Z,98752.36
2018-06-28T23:20:15.473Z,98748.73
2018-06-28T23:22:49.277Z,98745.33
2018-06-28T23:25:20.209Z,98747.70
2018-06-28T23:27:51.566Z,98741.44
2018-06-28T23:30:22.285Z,98740.81
2018-06-28T23:32:52.855Z,98739.28
2018-06-28T23:35:23.814Z,98736.67
2018-06-28T23:37:54.517Z,98733.55
2018-06-28T23:40:25.323Z,98737.77
2018-06-28T23:42:55.939Z,98735.72
2018-06-28T23:45:26.774Z,98726.60
2018-06-28T23:47:57.422Z,98724.80
2018-06-28T23:50:28.113Z,98725.31
2018-06-28T23:52:58.684Z,98725.88
2018-06-28T23:55:29.353Z,98727.69
2018-06-28T23:58:00.048Z,98725.33
